createdAt,value
2022-10-23T00:01:26.659Z,99984.41
2022-10-23T00:03:58.400Z,99985.41
2022-10-23T00:06:28.170Z,99980.91
2022-10-23T00:08:57.071Z,99979.09
2022-10-23T00:11:26.927Z,99978.16
2022-10-23T00:13:57.040Z,99974.63
2022-10-23T00:16:25.699Z,99970.19
2022-10-23T00:18:55.449Z,99970.28
2022-10-23T00:21:24.237Z,99968.53
2022-10-23T00:23:52.894Z,99958.88
2022-10-23T00:26:21.132Z,99964.91
2022-10-23T00:28:51.885Z,99961.41
2022-10-23T00:31:21.098Z,99947.50
2022-10-23T00:33:49.633Z,99957.81
2022-10-23T00:36:21.486Z,99952.59
2022-10-23T00:38:50.973Z,99950.91
2022-10-23T00:41:21.920Z,99949.19
2022-10-23T00:43:59.512Z,99955.31
2022-10-23T00:46:28.386Z,99949.19
2022-10-23T00:48:58.600Z,99952.72
2022-10-23T00:51:32.742Z,99953.63
2022-10-23T00:54:22.938Z,99935.09
2022-10-23T00:56:51.075Z,99943.88
2022-10-23T00:59:19.536Z,99942.91
2022-10-23T01:01:48.520Z,99943.94
2022-10-23T01:04:16.890Z,99943.94
2022-10-23T01:06:54.173Z,99938.72
2022-10-23T01:09:31.072Z,99937.03
2022-10-23T01:12:06.583Z,99938.84
2022-10-23T01:14:41.965Z,99933.63
2022-10-23T01:17:17.813Z,99938.00
2022-10-23T01:19:57.854Z,99931.91
2022-10-23T01:22:47.217Z,99937.19
2022-10-23T01:25:30.920Z,99930.03
2022-10-23T01:28:05.101Z,99935.09
2022-10-23T01:30:36.879Z,99930.69
2022-10-23T01:33:09.644Z,99924.56
2022-10-23T01:35:41.870Z,99933.28
2022-10-23T01:38:14.519Z,99926.28
2022-10-23T01:40:50.099Z,99935.03
2022-10-23T01:43:24.183Z,99921.84
2022-10-23T01:45:54.892Z,99921.75
2022-10-23T01:48:27.433Z,99906.91
2022-10-23T01:50:58.939Z,99908.66
2022-10-23T01:53:30.833Z,99908.59
2022-10-23T01:56:01.737Z,99898.00
2022-10-23T01:58:34.001Z,99898.06
2022-10-23T02:01:06.546Z,99899.78
2022-10-23T02:03:38.756Z,99894.59
2022-10-23T02:06:07.629Z,99890.28
2022-10-23T02:08:36.150Z,99894.63
2022-10-23T02:11:09.884Z,99893.78
2022-10-23T02:13:45.508Z,99899.06
2022-10-23T02:16:20.977Z,99884.13
2022-10-23T02:18:56.455Z,99884.06
2022-10-23T02:21:32.807Z,99882.25
2022-10-23T02:24:04.364Z,99872.47
2022-10-23T02:26:37.715Z,99879.31
2022-10-23T02:29:12.351Z,99873.09
2022-10-23T02:31:40.900Z,99867.75
2022-10-23T02:34:09.667Z,99855.50
2022-10-23T02:36:38.120Z,99859.78
2022-10-23T02:39:07.201Z,99854.56
2022-10-23T02:41:45.483Z,99864.31
2022-10-23T02:44:26.269Z,99855.50
2022-10-23T02:47:04.023Z,99846.75
2022-10-23T02:49:39.491Z,99852.00
2022-10-23T02:52:13.944Z,99853.75
2022-10-23T02:55:05.434Z,99846.75
2022-10-23T02:57:41.327Z,99842.31
2022-10-23T03:00:15.843Z,99848.47
2022-10-23T03:02:49.279Z,99845.03
2022-10-23T03:05:21.345Z,99851.13
2022-10-23T03:07:49.935Z,99844.03
2022-10-23T03:10:18.275Z,99846.75
2022-10-23T03:12:47.593Z,99843.28
2022-10-23T03:15:18.004Z,99846.84
2022-10-23T03:17:46.243Z,99841.56
2022-10-23T03:20:14.594Z,99834.63
2022-10-23T03:22:42.913Z,99843.28
2022-10-23T03:25:11.721Z,99844.09
2022-10-23T03:27:40.131Z,99846.75
2022-10-23T03:30:09.889Z,99832.66
2022-10-23T03:32:39.880Z,99836.13
2022-10-23T03:35:09.270Z,99834.31
2022-10-23T03:37:37.464Z,99834.22
2022-10-23T03:40:06.762Z,99828.97
2022-10-23T03:42:35.151Z,99818.41
2022-10-23T03:45:03.332Z,99814.88
2022-10-23T03:47:32.498Z,99820.97
2022-10-23T03:50:03.040Z,99815.56
2022-10-23T03:52:31.060Z,99809.28
2022-10-23T03:54:59.186Z,99803.00
2022-10-23T03:57:27.565Z,99801.09
2022-10-23T03:59:55.637Z,99808.94
2022-10-23T04:02:24.090Z,99809.81
2022-10-23T04:04:52.448Z,99808.94
2022-10-23T04:07:21.877Z,99808.88
2022-10-23T04:09:50.145Z,99806.97
2022-10-23T04:12:18.530Z,99806.97
2022-10-23T04:14:46.599Z,99807.78
2022-10-23T04:17:14.909Z,99808.59
2022-10-23T04:19:43.256Z,99797.97
2022-10-23T04:22:11.448Z,99803.25
2022-10-23T04:24:45.530Z,99810.28
2022-10-23T04:27:14.219Z,99803.09
2022-10-23T04:29:42.400Z,99799.53
2022-10-23T04:32:10.981Z,99796.00
2022-10-23T04:34:39.601Z,99790.78
2022-10-23T04:37:07.730Z,99801.34
2022-10-23T04:39:35.957Z,99799.44
2022-10-23T04:42:05.800Z,99801.28
2022-10-23T04:44:33.895Z,99799.53
2022-10-23T04:47:02.107Z,99804.81
2022-10-23T04:49:30.487Z,99808.38
2022-10-23T04:51:58.524Z,99811.00
2022-10-23T04:54:26.791Z,99804.88
2022-10-23T04:56:54.927Z,99808.38
2022-10-23T04:59:24.409Z,99803.94
2022-10-23T05:01:52.768Z,99800.41
2022-10-23T05:04:20.968Z,99803.84
2022-10-23T05:06:49.029Z,99797.63
2022-10-23T05:09:17.370Z,99799.38
2022-10-23T05:11:45.694Z,99799.25
2022-10-23T05:14:14.063Z,99793.97
2022-10-23T05:16:48.033Z,99804.53
2022-10-23T05:19:24.223Z,99781.66
2022-10-23T05:21:56.170Z,99792.81
2022-10-23T05:24:24.551Z,99784.81
2022-10-23T05:26:53.956Z,99788.13
2022-10-23T05:29:22.371Z,99781.81
2022-10-23T05:31:55.768Z,99777.41
2022-10-23T05:34:28.031Z,99778.81
2022-10-23T05:36:56.935Z,99773.44
2022-10-23T05:39:25.468Z,99768.00
2022-10-23T05:41:55.273Z,99767.91
2022-10-23T05:44:23.572Z,99769.63
2022-10-23T05:46:53.585Z,99774.81
2022-10-23T05:49:21.894Z,99771.19
2022-10-23T05:51:50.064Z,99772.88
2022-10-23T05:54:18.349Z,99774.72
2022-10-23T05:56:46.520Z,99768.50
2022-10-23T05:59:17.837Z,99764.09
2022-10-23T06:01:49.065Z,99767.69
2022-10-23T06:04:18.586Z,99767.69
2022-10-23T06:06:46.976Z,99774.63
2022-10-23T06:09:16.290Z,99767.69
2022-10-23T06:11:44.511Z,99769.53
2022-10-23T06:14:12.864Z,99765.97
2022-10-23T06:16:44.322Z,99769.53
2022-10-23T06:19:12.781Z,99770.41
2022-10-23T06:21:42.849Z,99766.06
2022-10-23T06:24:11.527Z,99774.81
2022-10-23T06:26:39.959Z,99766.94
2022-10-23T06:29:08.655Z,99766.16
2022-10-23T06:31:36.881Z,99769.53
2022-10-23T06:34:06.112Z,99764.31
2022-10-23T06:36:34.433Z,99759.03
2022-10-23T06:39:04.261Z,99766.06
2022-10-23T06:41:32.465Z,99760.88
2022-10-23T06:44:01.851Z,99772.88
2022-10-23T06:46:33.227Z,99764.97
2022-10-23T06:49:01.455Z,99765.78
2022-10-23T06:51:30.084Z,99767.59
2022-10-23T06:53:58.806Z,99774.63
2022-10-23T06:56:29.354Z,99771.88
2022-10-23T06:58:57.878Z,99774.63
2022-10-23T07:01:26.331Z,99765.78
2022-10-23T07:03:54.898Z,99774.50
2022-10-23T07:06:23.056Z,99773.53
2022-10-23T07:08:51.309Z,99779.78
2022-10-23T07:11:19.925Z,99781.53
2022-10-23T07:13:49.511Z,99769.22
2022-10-23T07:16:20.290Z,99770.16
2022-10-23T07:18:49.563Z,99768.31
2022-10-23T07:21:19.924Z,99778.84
2022-10-23T07:23:48.918Z,99779.69
2022-10-23T07:26:19.723Z,99783.25
2022-10-23T07:28:51.747Z,99786.81
2022-10-23T07:31:24.285Z,99782.41
2022-10-23T07:33:55.548Z,99776.88
2022-10-23T07:36:23.929Z,99790.19
2022-10-23T07:38:53.245Z,99777.84
2022-10-23T07:41:21.743Z,99776.03
2022-10-23T07:43:51.770Z,99779.63
2022-10-23T07:46:22.434Z,99788.34
2022-10-23T07:48:50.585Z,99783.16
2022-10-23T07:51:21.224Z,99788.25
2022-10-23T07:53:49.619Z,99783.72
2022-10-23T07:56:22.060Z,99777.47
2022-10-23T07:58:53.911Z,99777.38
2022-10-23T08:01:28.965Z,99772.09
2022-10-23T08:03:57.731Z,99783.47
2022-10-23T08:06:28.103Z,99774.72
2022-10-23T08:08:58.373Z,99768.56
2022-10-23T08:11:29.108Z,99788.88
2022-10-23T08:13:59.944Z,99791.72
2022-10-23T08:16:28.881Z,99789.69
2022-10-23T08:18:57.282Z,99795.06
2022-10-23T08:21:25.782Z,99786.34
2022-10-23T08:23:55.322Z,99786.44
2022-10-23T08:26:24.764Z,99800.38
2022-10-23T08:28:53.495Z,99801.97
2022-10-23T08:31:23.984Z,99793.97
2022-10-23T08:33:52.195Z,99799.81
2022-10-23T08:36:23.523Z,99794.59
2022-10-23T08:38:53.763Z,99802.44
2022-10-23T08:41:28.795Z,99794.50
2022-10-23T08:44:03.081Z,99791.00
2022-10-23T08:46:38.872Z,99808.56
2022-10-23T08:49:19.488Z,99801.59
2022-10-23T08:51:51.405Z,99808.53
2022-10-23T08:54:23.017Z,99806.78
2022-10-23T08:56:55.159Z,99820.94
2022-10-23T08:59:29.358Z,99820.81
2022-10-23T09:02:03.828Z,99822.47
2022-10-23T09:04:33.630Z,99817.81
2022-10-23T09:09:58.369Z,99820.94
2022-10-23T09:12:28.937Z,99827.75
2022-10-23T09:15:19.989Z,99835.59
2022-10-23T09:17:55.490Z,99823.19
2022-10-23T09:20:26.235Z,99829.19
2022-10-23T09:22:57.654Z,99839.75
2022-10-23T09:25:29.338Z,99836.19
2022-10-23T09:28:01.611Z,99843.22
2022-10-23T09:30:36.382Z,99846.97
2022-10-23T09:33:18.188Z,99848.69
2022-10-23T09:35:59.404Z,99854.94
2022-10-23T09:38:32.378Z,99848.69
2022-10-23T09:41:06.306Z,99845.91
2022-10-23T09:43:35.153Z,99852.09
2022-10-23T09:46:06.291Z,99864.47
2022-10-23T09:48:36.645Z,99855.53
2022-10-23T09:51:16.647Z,99857.47
2022-10-23T09:53:53.798Z,99863.59
2022-10-23T09:56:30.933Z,99860.81
2022-10-23T09:59:05.948Z,99872.44
2022-10-23T10:01:37.181Z,99878.63
2022-10-23T10:04:06.989Z,99883.91
2022-10-23T10:06:35.724Z,99877.53
2022-10-23T10:09:09.645Z,99885.53
2022-10-23T10:11:46.094Z,99885.53
2022-10-23T10:14:31.672Z,99886.41
2022-10-23T10:17:18.208Z,99883.91
2022-10-23T10:20:07.844Z,99890.91
2022-10-23T10:22:48.560Z,99883.78
2022-10-23T10:25:23.086Z,99887.38
2022-10-23T10:28:03.564Z,99883.91
2022-10-23T10:30:41.616Z,99884.09
2022-10-23T10:33:18.551Z,99892.81
2022-10-23T10:35:55.412Z,99886.53
2022-10-23T10:38:46.924Z,99891.63
2022-10-23T10:41:31.367Z,99888.88
2022-10-23T10:44:21.163Z,99888.88
2022-10-23T10:46:57.777Z,99889.75
2022-10-23T10:49:33.838Z,99882.81
2022-10-23T10:52:15.364Z,99880.31
2022-10-23T10:54:56.508Z,99884.00
2022-10-23T10:57:33.211Z,99892.75
2022-10-23T11:00:05.505Z,99889.19
2022-10-23T11:02:41.759Z,99889.06
2022-10-23T11:05:22.023Z,99890.72
2022-10-23T11:07:56.973Z,99876.88
2022-10-23T11:10:25.224Z,99887.16
2022-10-23T11:12:53.840Z,99899.38
2022-10-23T11:15:27.479Z,99897.53
2022-10-23T11:17:59.608Z,99892.03
2022-10-23T11:20:54.144Z,99891.94
2022-10-23T11:23:50.295Z,99897.53
2022-10-23T11:26:31.983Z,99912.47
2022-10-23T11:29:21.791Z,99902.75
2022-10-23T11:32:02.821Z,99895.34
2022-10-23T11:35:15.562Z,99894.59
2022-10-23T11:37:44.060Z,99895.25
2022-10-23T11:40:25.221Z,99907.06
2022-10-23T11:42:53.956Z,99906.00
2022-10-23T11:45:31.834Z,99909.50
2022-10-23T11:48:03.284Z,99909.34
2022-10-23T11:50:34.306Z,99904.00
2022-10-23T11:53:14.672Z,99904.00
2022-10-23T11:55:58.735Z,99903.38
2022-10-23T11:58:33.727Z,99900.81
2022-10-23T12:01:08.675Z,99901.66
2022-10-23T12:03:52.246Z,99905.22
2022-10-23T12:06:27.415Z,99902.84
2022-10-23T12:08:59.118Z,99901.09
2022-10-23T12:11:41.800Z,99908.13
2022-10-23T12:14:32.298Z,99907.34
2022-10-23T12:17:03.747Z,99895.66
2022-10-23T12:19:50.287Z,99902.84
2022-10-23T12:22:20.396Z,99904.44
2022-10-23T12:25:02.479Z,99895.00
2022-10-23T12:27:42.084Z,99903.47
2022-10-23T12:30:22.776Z,99886.03
2022-10-23T12:33:15.733Z,99896.59
2022-10-23T12:36:08.765Z,99891.38
2022-10-23T12:38:45.046Z,99891.44
2022-10-23T12:41:16.863Z,99904.38
2022-10-23T12:43:54.111Z,99910.69
2022-10-23T12:46:33.436Z,99904.66
2022-10-23T12:49:04.304Z,99919.09
2022-10-23T12:51:37.782Z,99906.88
2022-10-23T12:54:17.173Z,99913.97
2022-10-23T12:56:45.776Z,99914.63
2022-10-23T12:59:20.134Z,99908.50
2022-10-23T13:01:52.659Z,99908.50
2022-10-23T13:04:29.534Z,99906.03
2022-10-23T13:07:01.194Z,99910.22
2022-10-23T13:09:33.275Z,99907.78
2022-10-23T13:12:05.901Z,99913.16
2022-10-23T13:14:42.042Z,99921.09
2022-10-23T13:17:13.485Z,99910.34
2022-10-23T13:19:41.911Z,99903.13
2022-10-23T13:22:21.416Z,99914.69
2022-10-23T13:24:52.974Z,99915.53
2022-10-23T13:27:33.060Z,99915.72
2022-10-23T13:30:04.940Z,99910.53
2022-10-23T13:32:35.715Z,99911.56
2022-10-23T13:35:21.911Z,99915.91
2022-10-23T13:37:51.335Z,99908.69
2022-10-23T13:40:25.781Z,99914.19
2022-10-23T13:42:57.690Z,99910.63
2022-10-23T13:45:30.612Z,99903.13
2022-10-23T13:48:00.042Z,99921.47
2022-10-23T13:50:30.465Z,99918.13
2022-10-23T13:52:58.542Z,99911.09
2022-10-23T13:55:28.559Z,99918.03
2022-10-23T13:57:56.811Z,99914.44
2022-10-23T14:00:30.010Z,99900.50
2022-10-23T14:02:58.903Z,99911.00
2022-10-23T14:05:27.025Z,99917.91
2022-10-23T14:07:55.549Z,99914.75
2022-10-23T14:10:27.591Z,99919.25
2022-10-23T14:12:56.106Z,99911.53
2022-10-23T14:15:25.005Z,99917.91
2022-10-23T14:17:58.976Z,99915.19
2022-10-23T14:20:28.822Z,99922.16
2022-10-23T14:22:59.090Z,99902.81
2022-10-23T14:25:27.358Z,99904.53
2022-10-23T14:27:56.561Z,99903.59
2022-10-23T14:30:25.129Z,99892.28
2022-10-23T14:32:55.227Z,99904.63
2022-10-23T14:35:27.892Z,99893.97
2022-10-23T14:38:00.526Z,99901.09
2022-10-23T14:40:31.738Z,99894.13
2022-10-23T14:43:00.022Z,99899.34
2022-10-23T14:45:29.917Z,99896.09
2022-10-23T14:48:02.466Z,99898.06
2022-10-23T14:50:32.620Z,99894.50
2022-10-23T14:55:34.812Z,99888.31
2022-10-23T14:58:03.244Z,99887.31
2022-10-23T15:00:31.663Z,99897.84
2022-10-23T15:03:01.684Z,99906.75
2022-10-23T15:05:30.033Z,99899.03
2022-10-23T15:07:59.123Z,99895.38
2022-10-23T15:10:27.609Z,99894.41
2022-10-23T15:12:56.093Z,99889.13
2022-10-23T15:15:24.378Z,99896.06
2022-10-23T15:17:53.818Z,99902.28
2022-10-23T15:20:23.646Z,99897.97
2022-10-23T15:22:52.036Z,99866.53
2022-10-23T15:25:20.714Z,99878.66
2022-10-23T15:27:49.684Z,99886.59
2022-10-23T15:30:18.822Z,99890.09
2022-10-23T15:32:47.094Z,99882.22
2022-10-23T15:35:15.791Z,99885.75
2022-10-23T15:37:45.849Z,99884.75
2022-10-23T15:40:14.466Z,99884.59
2022-10-23T15:42:43.093Z,99889.13
2022-10-23T15:45:14.678Z,99899.78
2022-10-23T15:47:43.544Z,99903.25
2022-10-23T15:50:11.914Z,99902.34
2022-10-23T15:52:40.272Z,99894.34
2022-10-23T15:55:12.065Z,99892.50
2022-10-23T15:57:40.528Z,99885.47
2022-10-23T16:00:11.327Z,99897.06
2022-10-23T16:02:39.856Z,99898.06
2022-10-23T16:05:08.311Z,99899.88
2022-10-23T16:07:36.800Z,99901.63
2022-10-23T16:10:06.627Z,99889.31
2022-10-23T16:12:36.323Z,99906.97
2022-10-23T16:15:04.769Z,99907.06
2022-10-23T16:17:33.195Z,99903.69
2022-10-23T16:20:01.742Z,99906.16
2022-10-23T16:22:30.261Z,99900.88
2022-10-23T16:24:58.852Z,99899.78
2022-10-23T16:27:27.192Z,99891.78
2022-10-23T16:29:57.280Z,99894.34
2022-10-23T16:32:25.615Z,99897.88
2022-10-23T16:34:53.819Z,99897.00
2022-10-23T16:37:21.941Z,99887.50
2022-10-23T16:39:50.498Z,99897.97
2022-10-23T16:44:52.058Z,99910.28
2022-10-23T16:47:22.051Z,99896.50
2022-10-23T16:49:50.153Z,99905.06
2022-10-23T16:52:19.282Z,99915.84
2022-10-23T16:54:47.467Z,99914.16
2022-10-23T16:57:15.701Z,99917.75
2022-10-23T16:59:44.258Z,99912.47
2022-10-23T17:02:13.271Z,99916.00
2022-10-23T17:04:42.952Z,99921.19
2022-10-23T17:07:13.325Z,99921.19
2022-10-23T17:09:41.956Z,99908.75
2022-10-23T17:12:10.236Z,99910.63
2022-10-23T17:14:39.091Z,99912.34
2022-10-23T17:17:09.841Z,99908.97
2022-10-23T17:19:45.958Z,99910.88
2022-10-23T17:22:16.852Z,99913.56
2022-10-23T17:24:48.757Z,99914.38
2022-10-23T17:27:19.871Z,99912.69
2022-10-23T17:29:48.238Z,99909.16
2022-10-23T17:32:16.505Z,99916.16
2022-10-23T17:34:45.128Z,99910.88
2022-10-23T17:37:14.427Z,99909.09
2022-10-23T17:39:44.110Z,99907.50
2022-10-23T17:42:12.322Z,99911.88
2022-10-23T17:44:41.159Z,99905.69
2022-10-23T17:47:09.987Z,99911.16
2022-10-23T17:49:39.631Z,99909.44
2022-10-23T17:52:12.559Z,99905.88
2022-10-23T17:54:42.213Z,99905.94
2022-10-23T17:57:11.813Z,99906.13
2022-10-23T17:59:40.452Z,99906.13
2022-10-23T18:02:09.024Z,99906.22
2022-10-23T18:04:37.348Z,99906.25
2022-10-23T18:07:05.662Z,99901.97
2022-10-23T18:09:34.148Z,99900.16
2022-10-23T18:12:02.433Z,99888.78
2022-10-23T18:14:34.304Z,99894.94
2022-10-23T18:17:05.250Z,99899.34
2022-10-23T18:19:33.561Z,99897.66
2022-10-23T18:22:01.727Z,99899.47
2022-10-23T18:24:31.111Z,99898.59
2022-10-23T18:26:59.841Z,99887.38
2022-10-23T18:29:28.554Z,99886.34
2022-10-23T18:32:00.368Z,99889.88
2022-10-23T18:34:32.681Z,99883.72
2022-10-23T18:37:01.376Z,99888.06
2022-10-23T18:39:29.810Z,99885.47
2022-10-23T18:41:59.474Z,99887.22
2022-10-23T18:44:29.970Z,99879.44
2022-10-23T18:47:01.042Z,99880.38
2022-10-23T18:49:29.408Z,99878.44
2022-10-23T18:51:58.619Z,99879.19
2022-10-23T18:54:26.980Z,99876.34
2022-10-23T18:56:55.206Z,99878.06
2022-10-23T18:59:25.016Z,99883.25
2022-10-23T19:01:53.336Z,99883.25
2022-10-23T19:04:23.504Z,99874.53
2022-10-23T19:06:52.170Z,99873.66
2022-10-23T19:09:20.394Z,99875.41
2022-10-23T19:11:48.833Z,99865.59
2022-10-23T19:14:17.141Z,99866.44
2022-10-23T19:16:58.653Z,99874.56
2022-10-23T19:19:31.242Z,99882.44
2022-10-23T19:22:00.468Z,99893.97
2022-10-23T19:24:34.535Z,99887.09
2022-10-23T19:27:03.306Z,99885.38
2022-10-23T19:29:32.241Z,99886.28
2022-10-23T19:32:02.144Z,99889.88
2022-10-23T19:34:31.932Z,99885.59
2022-10-23T19:37:00.402Z,99889.72
2022-10-23T19:39:28.996Z,99885.22
2022-10-23T19:41:57.824Z,99891.53
2022-10-23T19:44:26.494Z,99891.69
2022-10-23T19:46:55.326Z,99886.47
2022-10-23T19:49:24.034Z,99884.69
2022-10-23T19:51:54.055Z,99878.69
2022-10-23T19:54:22.902Z,99877.81
2022-10-23T19:56:51.345Z,99871.78
2022-10-23T19:59:19.543Z,99868.97
2022-10-23T20:01:49.092Z,99874.34
2022-10-23T20:04:18.766Z,99869.91
2022-10-23T20:06:47.513Z,99869.88
2022-10-23T20:09:17.164Z,99865.69
2022-10-23T20:11:45.549Z,99866.50
2022-10-23T20:14:14.356Z,99868.34
2022-10-23T20:16:45.473Z,99863.13
2022-10-23T20:21:50.295Z,99845.97
2022-10-23T20:24:21.364Z,99851.16
2022-10-23T20:26:51.707Z,99856.44
2022-10-23T20:29:20.504Z,99846.06
2022-10-23T20:31:48.921Z,99849.34
2022-10-23T20:34:17.497Z,99847.69
2022-10-23T20:36:48.645Z,99837.22
2022-10-23T20:39:20.395Z,99847.78
2022-10-23T20:41:49.334Z,99846.06
2022-10-23T20:44:19.005Z,99846.97
2022-10-23T20:46:47.813Z,99840.59
2022-10-23T20:49:16.807Z,99840.78
2022-10-23T20:51:44.936Z,99845.88
2022-10-23T20:54:13.658Z,99839.72
2022-10-23T20:56:43.477Z,99853.91
2022-10-23T20:59:14.455Z,99847.78
2022-10-23T21:01:44.869Z,99851.41
2022-10-23T21:04:14.658Z,99861.88
2022-10-23T21:06:57.712Z,99859.03
2022-10-23T21:09:31.898Z,99846.06
2022-10-23T21:12:01.984Z,99845.88
2022-10-23T21:14:30.640Z,99851.16
2022-10-23T21:16:58.892Z,99849.34
2022-10-23T21:19:27.438Z,99841.59
2022-10-23T21:21:56.077Z,99851.56
2022-10-23T21:24:24.873Z,99844.78
2022-10-23T21:26:53.332Z,99860.38
2022-10-23T21:29:22.979Z,99856.81
2022-10-23T21:31:55.298Z,99859.59
2022-10-23T21:34:23.674Z,99864.06
2022-10-23T21:37:22.078Z,99865.94
2022-10-23T21:39:40.544Z,99868.81
2022-10-23T21:42:11.690Z,99866.06
2022-10-23T21:44:41.672Z,99860.78
2022-10-23T21:47:10.044Z,99862.34
2022-10-23T21:49:38.517Z,99853.75
2022-10-23T21:52:06.948Z,99857.69
2022-10-23T21:54:35.063Z,99860.22
2022-10-23T21:57:04.546Z,99869.94
2022-10-23T21:59:35.912Z,99866.44
2022-10-23T22:02:06.267Z,99862.97
2022-10-23T22:04:34.817Z,99877.69
2022-10-23T22:07:04.262Z,99876.91
2022-10-23T22:09:33.292Z,99878.56
2022-10-23T22:12:02.434Z,99884.25
2022-10-23T22:14:30.790Z,99894.97
2022-10-23T22:17:00.036Z,99898.66
2022-10-23T22:19:29.880Z,99909.09
2022-10-23T22:21:58.480Z,99909.97
2022-10-23T22:24:27.142Z,99896.66
2022-10-23T22:26:57.302Z,99900.28
2022-10-23T22:29:28.361Z,99903.97
2022-10-23T22:31:57.500Z,99903.16
2022-10-23T22:34:48.303Z,99905.56
2022-10-23T22:37:17.285Z,99902.97
2022-10-23T22:39:45.710Z,99906.31
2022-10-23T22:42:13.914Z,99913.56
2022-10-23T22:44:42.211Z,99914.22
2022-10-23T22:47:10.334Z,99920.56
2022-10-23T22:49:38.743Z,99921.44
2022-10-23T22:52:07.173Z,99915.28
2022-10-23T22:54:36.809Z,99902.09
2022-10-23T22:57:05.087Z,99903.00
2022-10-23T22:59:33.500Z,99893.28
2022-10-23T23:02:02.023Z,99900.56
2022-10-23T23:04:37.892Z,99896.34
2022-10-23T23:07:07.177Z,99905.09
2022-10-23T23:09:39.380Z,99907.78
2022-10-23T23:12:08.622Z,99918.31
2022-10-23T23:14:37.134Z,99925.41
2022-10-23T23:17:06.237Z,99920.19
2022-10-23T23:19:34.618Z,99928.84
2022-10-23T23:22:04.594Z,99920.06
2022-10-23T23:24:33.258Z,99919.97
2022-10-23T23:27:02.983Z,99908.25
2022-10-23T23:29:31.147Z,99916.09
2022-10-23T23:31:59.700Z,99912.34
2022-10-23T23:34:28.369Z,99925.72
2022-10-23T23:36:56.419Z,99918.69
2022-10-23T23:39:26.178Z,99915.38
2022-10-23T23:41:54.598Z,99914.50
2022-10-23T23:44:24.591Z,99900.69
2022-10-23T23:46:53.315Z,99916.50
2022-10-23T23:49:21.695Z,99914.78
2022-10-23T23:51:50.382Z,99910.25
2022-10-23T23:54:18.873Z,99903.97
2022-10-23T23:56:47.384Z,99895.16
2022-10-23T23:59:15.430Z,99902.09
